Time;durP1;ratioP1;P1;durP2;ratioP2;P2;SDS_P1;SDS_P2;PMS_P1;PMS_P2;Temp;Humidity;BMP_temperature;BMP_pressure;BME280_temperature;BME280_humidity;BME280_pressure;Samples;Min_cycle;Max_cycle;Signal;HPM_P1;HPM_P2
2022/06/23 00:01:49;;;;;;;3.13;2.67;;;22.20;99.90;;;;;;5094057;28;20028;-66
2022/06/23 00:04:18;;;;;;;3.50;3.20;;;22.20;99.90;;;;;;5091875;28;20081;-66
2022/06/23 00:06:50;;;;;;;3.70;3.10;;;22.10;99.90;;;;;;5073386;28;20353;-66
2022/06/23 00:09:38;;;;;;;3.50;2.88;;;22.00;99.90;;;;;;5072583;28;20086;-65
2022/06/23 00:12:16;;;;;;;4.03;3.20;;;22.00;99.90;;;;;;5073062;28;20028;-66
2022/06/23 00:14:42;;;;;;;4.75;3.08;;;21.90;99.90;;;;;;5073300;28;20365;-66
2022/06/23 00:17:29;;;;;;;4.63;3.63;;;21.90;99.90;;;;;;5072029;28;20024;-66
2022/06/23 00:19:59;;;;;;;4.40;3.00;;;21.90;99.90;;;;;;5072623;28;20100;-66
2022/06/23 00:22:27;;;;;;;4.25;3.78;;;21.80;99.90;;;;;;5073157;28;20452;-66
2022/06/23 00:24:58;;;;;;;3.95;3.35;;;21.80;99.90;;;;;;5072801;28;20461;-66
2022/06/23 00:27:30;;;;;;;5.00;3.95;;;21.80;99.90;;;;;;5073198;28;20512;-66
2022/06/23 00:30:03;;;;;;;3.35;2.97;;;21.80;99.90;;;;;;5072526;28;20526;-66
2022/06/23 00:32:30;;;;;;;3.42;3.13;;;21.80;99.90;;;;;;5075825;28;20099;-66
2022/06/23 00:35:00;;;;;;;4.68;3.10;;;21.80;99.90;;;;;;5074617;28;20032;-66
2022/06/23 00:37:27;;;;;;;6.00;3.70;;;21.80;99.90;;;;;;5092947;28;20028;-66
2022/06/23 00:40:04;;;;;;;3.63;3.30;;;21.80;99.90;;;;;;5092765;28;20500;-66
2022/06/23 00:43:02;;;;;;;3.85;2.92;;;21.70;99.90;;;;;;5093206;28;20020;-67
2022/06/23 00:45:34;;;;;;;4.70;3.25;;;21.70;99.90;;;;;;5092784;28;20486;-66
2022/06/23 00:48:36;;;;;;;5.25;3.47;;;21.70;99.90;;;;;;5092618;28;20070;-66
2022/06/23 00:51:26;;;;;;;6.53;3.75;;;21.80;99.90;;;;;;5092635;28;20027;-66
2022/06/23 00:54:21;;;;;;;4.47;3.22;;;21.80;99.90;;;;;;5092629;28;20020;-66
2022/06/23 00:57:14;;;;;;;3.45;3.10;;;21.80;99.90;;;;;;5090288;28;20170;-66
2022/06/23 00:59:48;;;;;;;9.32;3.38;;;21.90;99.90;;;;;;5074284;28;20024;-66
2022/06/23 01:02:27;;;;;;;4.30;3.30;;;21.90;99.90;;;;;;5092426;28;20024;-65
2022/06/23 01:05:01;;;;;;;3.80;3.42;;;21.90;99.90;;;;;;5092183;28;20107;-65
2022/06/23 01:07:30;;;;;;;5.78;3.35;;;21.90;99.90;;;;;;5092680;28;20093;-66
2022/06/23 01:10:01;;;;;;;4.75;3.28;;;21.90;99.90;;;;;;5092243;28;20349;-66
2022/06/23 01:12:33;;;;;;;4.28;3.47;;;21.90;99.90;;;;;;5092716;28;20028;-67
2022/06/23 01:15:11;;;;;;;4.97;3.35;;;21.90;99.90;;;;;;5092173;28;20048;-66
2022/06/23 01:18:21;;;;;;;4.38;3.30;;;21.90;99.90;;;;;;5092900;28;20020;-67
2022/06/23 01:21:21;;;;;;;3.30;3.00;;;21.90;99.90;;;;;;5091553;28;20082;-66
2022/06/23 01:24:05;;;;;;;3.83;2.90;;;21.90;99.90;;;;;;5092536;28;20105;-66
2022/06/23 01:26:30;;;;;;;4.82;3.00;;;21.90;99.90;;;;;;5074103;28;20027;-66
2022/06/23 01:29:10;;;;;;;4.85;3.80;;;21.90;99.90;;;;;;5092063;28;20032;-66
2022/06/23 01:31:44;;;;;;;3.72;3.33;;;21.90;99.90;;;;;;5092504;28;20035;-65
2022/06/23 01:34:42;;;;;;;5.85;3.42;;;21.90;99.90;;;;;;5091926;28;20039;-66
2022/06/23 01:37:26;;;;;;;3.45;3.15;;;21.90;99.90;;;;;;5084876;28;20040;-65
2022/06/23 01:40:18;;;;;;;4.28;2.63;;;21.90;99.90;;;;;;5092277;28;20016;-66
2022/06/23 01:42:51;;;;;;;6.95;3.40;;;21.80;99.90;;;;;;5092335;28;20160;-66
2022/06/23 01:45:43;;;;;;;4.60;3.35;;;21.80;99.90;;;;;;5091693;28;20080;-65
2022/06/23 01:48:12;;;;;;;4.15;3.42;;;21.80;99.90;;;;;;5091975;28;20016;-65
2022/06/23 01:50:51;;;;;;;4.68;2.97;;;21.80;99.90;;;;;;5092098;28;20028;-66
2022/06/23 01:53:17;;;;;;;3.83;3.47;;;21.80;99.90;;;;;;5091797;28;20468;-66
2022/06/23 01:55:55;;;;;;;5.32;3.40;;;21.80;99.90;;;;;;5092040;28;20054;-66
2022/06/23 01:58:25;;;;;;;4.15;3.15;;;21.80;99.90;;;;;;5089082;28;20066;-65
2022/06/23 02:00:55;;;;;;;5.60;3.60;;;21.70;99.90;;;;;;5085706;28;20376;-65
2022/06/23 02:03:31;;;;;;;4.03;3.35;;;21.70;99.90;;;;;;5071728;28;20029;-65
2022/06/23 02:06:11;;;;;;;4.00;3.20;;;21.70;99.90;;;;;;5080776;28;20024;-65
2022/06/23 02:08:42;;;;;;;3.83;3.30;;;21.70;99.90;;;;;;5071875;28;20371;-66
2022/06/23 02:11:29;;;;;;;5.30;3.35;;;21.70;99.90;;;;;;5071065;28;20060;-66
2022/06/23 02:14:21;;;;;;;3.60;3.20;;;21.70;99.90;;;;;;5071748;28;20025;-66
2022/06/23 02:16:55;;;;;;;4.75;3.28;;;21.70;99.90;;;;;;5060748;28;20044;-66
2022/06/23 02:19:37;;;;;;;5.03;3.38;;;21.70;99.90;;;;;;5071356;28;20033;-66
2022/06/23 02:22:15;;;;;;;4.57;3.67;;;21.70;99.90;;;;;;5071339;28;20025;-66
2022/06/23 02:25:05;;;;;;;3.47;3.17;;;21.70;99.90;;;;;;5084041;28;20070;-66
2022/06/23 02:27:31;;;;;;;5.88;3.20;;;21.70;99.90;;;;;;5092061;28;20059;-66
2022/06/23 02:30:04;;;;;;;3.50;3.20;;;21.70;99.90;;;;;;5091769;28;20382;-66
2022/06/23 02:33:02;;;;;;;4.65;2.95;;;21.60;99.90;;;;;;5091513;28;20020;-65
2022/06/23 02:35:42;;;;;;;2.83;2.58;;;21.60;99.90;;;;;;5074112;28;20032;-66
2022/06/23 02:38:29;;;;;;;4.57;3.72;;;21.60;99.90;;;;;;5091687;28;20021;-66
2022/06/23 02:41:15;;;;;;;3.42;3.03;;;21.60;99.90;;;;;;5095515;28;20032;-66
2022/06/23 02:43:58;;;;;;;3.75;3.25;;;21.60;99.90;;;;;;5095313;28;20111;-66
2022/06/23 02:46:39;;;;;;;3.67;2.97;;;21.60;99.90;;;;;;5095045;28;20075;-65
2022/06/23 02:49:25;;;;;;;4.90;2.72;;;21.60;99.90;;;;;;5095141;28;20024;-65
2022/06/23 02:52:25;;;;;;;3.33;3.03;;;21.60;99.90;;;;;;5095345;28;20024;-66
2022/06/23 02:55:15;;;;;;;4.18;3.03;;;21.60;99.90;;;;;;5095244;28;20042;-65
2022/06/23 02:57:54;;;;;;;4.38;3.30;;;21.60;99.90;;;;;;5095126;28;20495;-65
2022/06/23 03:00:58;;;;;;;4.53;3.00;;;21.50;99.90;;;;;;5094974;28;20024;-66
2022/06/23 03:03:27;;;;;;;3.00;2.40;;;21.50;99.90;;;;;;5091730;28;20043;-66
2022/06/23 03:05:57;;;;;;;3.78;3.00;;;21.50;99.90;;;;;;5095097;28;20028;-65
2022/06/23 03:08:26;;;;;;;3.50;2.92;;;21.50;99.90;;;;;;5094646;28;20399;-65
2022/06/23 03:11:00;;;;;;;3.03;2.50;;;21.50;99.90;;;;;;5095038;28;20050;-66
2022/06/23 03:13:31;;;;;;;3.25;2.92;;;21.50;99.90;;;;;;5094558;28;20024;-65
2022/06/23 03:16:03;;;;;;;;;;;21.50;99.90;;;;;;5095166;28;20036;-64
2022/06/23 03:18:51;;;;;;;3.10;2.75;;;21.40;99.90;;;;;;5094828;28;19991;-65
2022/06/23 03:21:38;;;;;;;3.47;3.17;;;21.40;99.90;;;;;;5094229;28;20376;-65
2022/06/23 03:24:28;;;;;;;3.85;2.78;;;21.40;99.90;;;;;;5093756;28;20035;-65
2022/06/23 03:27:03;;;;;;;3.78;2.80;;;21.30;99.90;;;;;;5092120;28;20097;-66
2022/06/23 03:29:49;;;;;;;5.65;3.53;;;21.30;99.90;;;;;;5089392;28;20077;-66
2022/06/23 03:32:31;;;;;;;4.43;2.72;;;21.30;99.90;;;;;;5093560;28;20135;-66
2022/06/23 03:35:21;;;;;;;4.13;2.80;;;21.20;99.90;;;;;;5093754;28;20096;-65
2022/06/23 03:38:03;;;;;;;5.30;3.58;;;21.20;99.90;;;;;;5094154;28;20353;-65
2022/06/23 03:43:58;;;;;;;4.63;3.20;;;21.10;99.90;;;;;;5040040;28;20055;-65
2022/06/23 03:46:25;;;;;;;3.10;2.80;;;21.10;99.90;;;;;;5093303;28;20055;-66
2022/06/23 03:49:19;;;;;;;3.60;2.90;;;21.10;99.90;;;;;;5086308;28;20090;-66
2022/06/23 03:51:55;;;;;;;3.42;2.88;;;21.10;99.90;;;;;;5072544;28;20059;-65
2022/06/23 03:54:28;;;;;;;3.65;3.05;;;21.10;99.90;;;;;;5073323;28;20119;-64
2022/06/23 03:56:59;;;;;;;4.55;3.30;;;21.10;99.90;;;;;;5076047;28;20029;-66
2022/06/23 03:59:31;;;;;;;4.03;3.03;;;21.20;99.90;;;;;;5072966;28;20031;-65
2022/06/23 04:02:19;;;;;;;3.92;2.95;;;21.20;99.90;;;;;;5073568;28;20027;-65
2022/06/23 04:04:51;;;;;;;3.63;2.85;;;21.30;99.90;;;;;;5072949;28;20419;-65
2022/06/23 04:07:29;;;;;;;4.32;3.10;;;21.30;99.90;;;;;;5073007;28;20025;-65
2022/06/23 04:10:08;;;;;;;3.83;2.85;;;21.40;99.90;;;;;;5073123;28;20109;-66
2022/06/23 04:12:36;;;;;;;2.90;2.60;;;21.50;99.90;;;;;;5073018;28;20534;-65
2022/06/23 04:15:17;;;;;;;3.50;3.20;;;21.50;99.90;;;;;;5085467;28;20104;-66
2022/06/23 04:17:50;;;;;;;3.40;2.88;;;21.60;99.90;;;;;;5093470;28;20046;-66
2022/06/23 04:20:39;;;;;;;3.85;3.25;;;21.60;99.90;;;;;;5092984;28;20082;-66
2022/06/23 04:23:10;;;;;;;3.95;2.80;;;21.70;99.90;;;;;;5093461;28;20032;-65
2022/06/23 04:26:05;;;;;;;3.35;3.03;;;21.80;99.90;;;;;;5093009;28;20028;-65
2022/06/23 04:28:41;;;;;;;5.55;2.80;;;21.80;99.90;;;;;;5091695;28;20198;-64
2022/06/23 04:31:07;;;;;;;4.07;2.90;;;21.90;99.90;;;;;;5092960;28;20097;-66
2022/06/23 04:33:38;;;;;;;4.53;3.30;;;22.00;99.90;;;;;;5092534;28;20111;-65
2022/06/23 04:36:04;;;;;;;;;;;22.20;99.90;;;;;;5093610;28;20030;-65
2022/06/23 04:38:50;;;;;;;5.75;2.88;;;22.30;99.90;;;;;;5092698;28;19904;-65
2022/06/23 04:41:24;;;;;;;5.80;2.67;;;22.40;99.90;;;;;;5092631;28;20036;-65
2022/06/23 04:43:55;;;;;;;3.80;2.80;;;22.50;99.90;;;;;;5092505;28;20447;-65
2022/06/23 04:46:40;;;;;;;;;;;22.60;99.90;;;;;;5092767;28;20117;-65
2022/06/23 04:49:30;;;;;;;4.95;2.53;;;22.70;99.90;;;;;;5092740;28;19904;-65
2022/06/23 04:51:59;;;;;;;5.95;2.70;;;22.70;99.90;;;;;;5092722;28;20039;-66
2022/06/23 04:54:29;;;;;;;3.30;2.58;;;22.80;99.80;;;;;;5092269;28;20024;-66
2022/06/23 04:56:54;;;;;;;3.03;2.50;;;22.90;99.90;;;;;;5092376;28;20039;-68
2022/06/23 04:59:44;;;;;;;3.00;2.70;;;23.00;99.30;;;;;;5092078;28;20020;-67
2022/06/23 05:02:34;;;;;;;3.60;3.00;;;23.20;98.80;;;;;;5091761;28;20456;-67
2022/06/23 05:04:59;;;;;;;2.72;2.53;;;23.30;98.80;;;;;;5092249;28;20461;-67
2022/06/23 05:07:31;;;;;;;3.78;2.42;;;23.60;98.00;;;;;;5092099;28;20035;-67
2022/06/23 05:10:01;;;;;;;4.28;2.75;;;23.70;96.80;;;;;;5092160;28;20089;-68
2022/06/23 05:12:33;;;;;;;2.83;2.53;;;23.90;95.30;;;;;;5091704;28;20020;-67
2022/06/23 05:15:22;;;;;;;3.38;2.65;;;24.00;94.60;;;;;;5092322;28;20081;-67
2022/06/23 05:17:55;;;;;;;3.17;2.65;;;24.20;94.60;;;;;;5077719;28;20032;-67
2022/06/23 05:20:53;;;;;;;2.40;2.20;;;24.30;93.00;;;;;;5092480;28;20099;-67
2022/06/23 05:23:27;;;;;;;4.25;2.60;;;24.40;92.70;;;;;;5078209;28;20043;-67
2022/06/23 05:25:56;;;;;;;3.83;2.67;;;24.40;91.70;;;;;;5092052;28;20028;-67
2022/06/23 05:28:26;;;;;;;2.95;2.65;;;24.40;91.30;;;;;;5091990;28;20024;-68
2022/06/23 05:31:01;;;;;;;3.67;2.85;;;24.30;91.20;;;;;;5092225;28;20077;-67
2022/06/23 05:33:34;;;;;;;4.72;3.00;;;24.30;91.30;;;;;;5091628;28;20388;-67
2022/06/23 05:36:20;;;;;;;4.80;2.88;;;24.40;92.00;;;;;;5091863;28;20040;-67
2022/06/23 05:39:14;;;;;;;3.60;2.28;;;24.60;91.90;;;;;;5092510;28;20032;-67
2022/06/23 05:41:44;;;;;;;2.60;2.05;;;24.80;91.20;;;;;;5091953;28;20097;-68
2022/06/23 05:44:20;;;;;;;2.92;2.58;;;25.00;90.50;;;;;;5091892;28;20349;-68
2022/06/23 05:46:48;;;;;;;2.58;1.95;;;25.20;87.90;;;;;;5092102;28;20135;-67
2022/06/23 05:49:19;;;;;;;2.42;2.22;;;25.30;86.20;;;;;;5061099;28;20346;-67
2022/06/23 05:52:09;;;;;;;4.75;2.90;;;25.70;86.90;;;;;;5071763;28;20024;-68
2022/06/23 05:54:44;;;;;;;9.80;3.03;;;26.60;84.60;;;;;;5071589;28;20037;-67
2022/06/23 05:57:46;;;;;;;3.03;2.55;;;27.70;83.00;;;;;;5074026;28;20037;-68
2022/06/23 06:00:21;;;;;;;4.30;2.72;;;28.50;71.60;;;;;;5050114;28;20094;-68
2022/06/23 06:03:06;;;;;;;5.75;2.80;;;29.10;72.20;;;;;;5072208;28;20035;-68
2022/06/23 06:05:37;;;;;;;3.25;2.60;;;30.10;70.30;;;;;;5071573;28;20033;-68
2022/06/23 06:08:12;;;;;;;4.05;3.05;;;31.30;63.30;;;;;;5071564;28;20555;-67
2022/06/23 06:10:38;;;;;;;3.42;2.30;;;31.00;59.30;;;;;;5071534;28;20104;-67
2022/06/23 06:13:12;;;;;;;4.57;2.75;;;30.70;60.30;;;;;;5071411;28;20040;-67
2022/06/23 06:15:44;;;;;;;3.85;2.47;;;30.00;60.10;;;;;;5074954;28;20036;-68
2022/06/23 06:18:18;;;;;;;3.17;2.30;;;29.40;63.00;;;;;;5075683;28;20318;-67
2022/06/23 06:20:44;;;;;;;2.97;2.30;;;28.90;65.00;;;;;;5094140;28;20027;-67
2022/06/23 06:23:19;;;;;;;5.05;2.75;;;28.70;64.70;;;;;;5095176;28;20020;-68
2022/06/23 06:25:48;;;;;;;3.25;1.52;;;28.60;65.70;;;;;;5095539;28;20077;-68
2022/06/23 06:28:22;;;;;;;2.08;1.70;;;28.60;65.00;;;;;;5095315;28;20464;-68
2022/06/23 06:31:02;;;;;;;3.08;2.17;;;28.60;62.80;;;;;;5095249;28;20491;-68
2022/06/23 06:33:37;;;;;;;2.25;1.58;;;28.60;62.70;;;;;;5095313;28;20020;-68
2022/06/23 06:36:40;;;;;;;4.03;2.20;;;28.80;65.80;;;;;;5095604;28;20389;-67
2022/06/23 06:39:18;;;;;;;3.25;1.90;;;29.00;62.50;;;;;;5094721;28;20032;-68
2022/06/23 06:41:47;;;;;;;3.60;1.98;;;29.20;62.00;;;;;;5095724;28;20051;-68
2022/06/23 06:44:16;;;;;;;1.95;1.50;;;29.70;62.70;;;;;;5095607;28;20492;-68
2022/06/23 06:46:43;;;;;;;4.63;1.63;;;30.50;62.00;;;;;;5095444;28;20568;-68
2022/06/23 06:49:18;;;;;;;6.10;2.28;;;31.00;60.20;;;;;;5083018;28;20116;-68
2022/06/23 06:51:45;;;;;;;4.70;2.15;;;31.90;57.40;;;;;;5074841;28;20036;-67
2022/06/23 06:54:17;;;;;;;4.03;1.80;;;32.70;55.10;;;;;;5074838;28;20063;-67
2022/06/23 06:56:53;;;;;;;2.38;2.03;;;33.20;52.00;;;;;;5074914;28;20039;-66
2022/06/23 06:59:33;;;;;;;2.05;1.80;;;33.50;52.20;;;;;;5074571;28;20039;-67
2022/06/23 07:02:13;;;;;;;2.47;1.92;;;33.70;52.50;;;;;;5074849;28;20035;-67
2022/06/23 07:04:47;;;;;;;2.60;2.10;;;33.90;51.20;;;;;;5074790;28;20047;-68
2022/06/23 07:07:20;;;;;;;2.05;1.80;;;33.90;50.70;;;;;;5074973;28;20021;-67
2022/06/23 07:09:46;;;;;;;2.78;1.95;;;33.80;51.50;;;;;;5074779;28;20103;-67
2022/06/23 07:12:29;;;;;;;2.33;1.88;;;33.80;50.80;;;;;;5074402;28;20079;-67
2022/06/23 07:15:14;;;;;;;2.25;1.80;;;33.80;51.20;;;;;;5074663;28;20035;-67
2022/06/23 07:17:45;;;;;;;2.53;1.95;;;33.30;50.80;;;;;;5074092;28;20028;-67
2022/06/23 07:20:23;;;;;;;4.28;2.17;;;32.70;52.50;;;;;;5074177;28;20025;-67
2022/06/23 07:23:01;;;;;;;2.55;2.20;;;32.20;54.40;;;;;;5074422;28;20429;-67
2022/06/23 07:25:35;;;;;;;2.50;2.05;;;32.30;53.60;;;;;;5074098;28;20025;-67
2022/06/23 07:28:11;;;;;;;2.67;2.40;;;31.60;54.30;;;;;;5074685;28;20034;-67
2022/06/23 07:30:44;;;;;;;2.88;1.92;;;31.20;53.80;;;;;;5073920;28;20025;-68
2022/06/23 07:33:19;;;;;;;2.08;1.83;;;30.60;55.10;;;;;;5074574;28;20111;-67
2022/06/23 07:36:21;;;;;;;3.05;1.95;;;30.10;56.60;;;;;;5073002;28;20093;-68
2022/06/23 07:39:03;;;;;;;2.63;2.20;;;29.70;57.80;;;;;;5067291;28;20028;-68
2022/06/23 07:41:38;;;;;;;3.25;2.42;;;29.70;61.00;;;;;;5073630;28;20033;-67
2022/06/23 07:44:20;;;;;;;2.55;2.10;;;29.40;59.20;;;;;;5073717;28;20564;-68
2022/06/23 07:46:46;;;;;;;2.78;1.63;;;30.50;60.40;;;;;;5074200;28;20102;-67
2022/06/23 07:49:12;;;;;;;2.70;2.03;;;31.60;56.80;;;;;;5090017;28;20024;-68
2022/06/23 07:51:38;;;;;;;1.95;1.75;;;32.40;55.30;;;;;;5093748;28;20468;-66
2022/06/23 07:54:07;;;;;;;2.95;2.05;;;32.80;52.90;;;;;;5094071;28;20028;-67
2022/06/23 07:56:36;;;;;;;2.75;1.83;;;33.20;51.50;;;;;;5093485;28;20064;-67
2022/06/23 07:59:07;;;;;;;2.58;1.85;;;33.40;50.80;;;;;;5094108;28;20072;-67
2022/06/23 08:01:51;;;;;;;;;;;33.50;50.20;;;;;;5093881;28;20035;-67
2022/06/23 08:04:46;;;;;;;2.70;2.10;;;33.50;50.80;;;;;;5093937;28;20368;-68
2022/06/23 08:07:12;;;;;;;3.22;2.00;;;33.50;48.70;;;;;;5094189;28;20097;-66
2022/06/23 08:09:46;;;;;;;3.17;1.65;;;33.50;49.20;;;;;;5093125;28;20444;-67
2022/06/23 08:18:27;;;;;;;2.15;1.95;;;33.50;51.50;;;;;;5038406;28;20457;-67
2022/06/23 08:21:24;;;;;;;3.10;1.93;;;33.50;50.00;;;;;;5093568;28;20028;-67
2022/06/23 08:23:57;;;;;;;2.92;1.92;;;33.30;48.90;;;;;;5054553;28;20040;-67
2022/06/23 08:26:23;;;;;;;4.03;1.98;;;33.10;50.20;;;;;;5093691;28;20035;-67
2022/06/23 08:28:53;;;;;;;2.40;1.92;;;32.90;49.00;;;;;;5093350;28;20406;-67
2022/06/23 08:31:19;;;;;;;2.97;2.10;;;32.90;50.70;;;;;;5093248;28;20096;-67
2022/06/23 08:33:45;;;;;;;2.13;1.77;;;32.60;49.90;;;;;;5092558;28;20137;-67
2022/06/23 08:36:15;;;;;;;2.95;1.70;;;32.30;49.90;;;;;;5093022;28;20103;-67
2022/06/23 08:38:59;;;;;;;2.55;2.35;;;32.00;49.10;;;;;;5092633;28;20112;-66
2022/06/23 08:41:30;;;;;;;4.03;2.47;;;31.80;50.70;;;;;;5092688;28;20032;-67
2022/06/23 08:44:00;;;;;;;;;;;31.50;48.30;;;;;;5093310;28;20062;-66
2022/06/23 08:46:38;;;;;;;1.63;1.52;;;31.40;49.40;;;;;;5092323;28;20284;-67
2022/06/23 08:49:16;;;;;;;2.67;1.98;;;31.10;49.10;;;;;;5093266;28;20092;-67
2022/06/23 08:51:51;;;;;;;2.42;1.65;;;31.00;51.70;;;;;;5092899;28;20044;-66
2022/06/23 08:54:33;;;;;;;1.67;1.55;;;30.80;50.10;;;;;;5093185;28;20049;-68
2022/06/23 08:57:17;;;;;;;2.88;1.60;;;30.60;48.90;;;;;;5093184;28;20445;-66
2022/06/23 09:00:07;;;;;;;2.00;1.42;;;30.40;47.60;;;;;;5092303;28;20024;-67
2022/06/23 09:02:45;;;;;;;3.10;1.65;;;30.30;48.60;;;;;;5092249;28;20021;-66
2022/06/23 09:05:14;;;;;;;3.17;1.70;;;30.20;49.50;;;;;;5092926;28;20058;-67
2022/06/23 09:07:59;;;;;;;1.60;1.33;;;30.20;48.90;;;;;;5092150;28;20034;-66
2022/06/23 09:10:49;;;;;;;5.72;2.05;;;30.20;49.70;;;;;;5092562;28;20064;-67
2022/06/23 09:13:48;;;;;;;1.60;1.50;;;30.10;51.20;;;;;;5092651;28;20464;-68
2022/06/23 09:16:47;;;;;;;1.55;1.45;;;30.00;51.30;;;;;;5092312;28;20039;-67
2022/06/23 09:19:18;;;;;;;2.50;1.80;;;29.90;49.20;;;;;;5092694;28;20081;-67
2022/06/23 09:22:02;;;;;;;2.78;1.70;;;29.80;49.30;;;;;;5092123;28;20085;-68
2022/06/23 09:24:37;;;;;;;2.03;1.70;;;29.70;49.60;;;;;;5091846;28;20028;-66
2022/06/23 09:27:12;;;;;;;2.22;2.03;;;29.70;50.80;;;;;;5092768;28;20024;-66
2022/06/23 09:29:46;;;;;;;2.30;1.60;;;29.60;50.10;;;;;;5091940;28;20473;-67
2022/06/23 09:32:29;;;;;;;1.90;1.70;;;29.50;50.00;;;;;;5092396;28;20024;-67
2022/06/23 09:35:22;;;;;;;1.45;1.35;;;29.40;49.70;;;;;;5092409;28;20048;-68
2022/06/23 09:38:09;;;;;;;2.60;1.67;;;29.40;49.10;;;;;;5091845;28;20148;-68
2022/06/23 09:40:39;;;;;;;4.13;1.95;;;29.30;50.30;;;;;;5092103;28;20456;-67
2022/06/23 09:43:17;;;;;;;2.58;1.60;;;29.30;49.20;;;;;;5092563;28;20418;-67
2022/06/23 09:46:13;;;;;;;2.70;1.98;;;29.20;49.30;;;;;;5091512;28;20052;-67
2022/06/23 09:48:56;;;;;;;1.50;1.30;;;29.20;49.00;;;;;;5093750;28;20502;-67
2022/06/23 09:51:37;;;;;;;1.63;1.40;;;29.20;48.90;;;;;;5096405;28;20024;-67
2022/06/23 09:54:21;;;;;;;;;;;29.20;48.40;;;;;;5096890;28;20020;-67
2022/06/23 09:57:19;;;;;;;1.60;1.50;;;29.20;49.30;;;;;;5092331;28;19965;-67
2022/06/23 10:00:01;;;;;;;3.75;1.85;;;29.20;48.60;;;;;;5020310;28;20198;-67
2022/06/23 10:02:52;;;;;;;1.92;1.70;;;29.20;48.90;;;;;;5087548;28;20031;-67
2022/06/23 10:05:30;;;;;;;2.60;1.70;;;29.30;48.70;;;;;;5096144;28;20039;-67
2022/06/23 10:08:11;;;;;;;1.70;1.60;;;29.30;48.10;;;;;;5096364;28;20020;-67
2022/06/23 10:11:06;;;;;;;2.25;1.73;;;29.30;47.90;;;;;;5095990;28;20407;-67
2022/06/23 10:13:49;;;;;;;3.08;1.50;;;29.30;47.70;;;;;;5095701;28;20027;-67
2022/06/23 10:16:49;;;;;;;4.95;1.45;;;29.40;49.20;;;;;;5095725;28;20039;-68
2022/06/23 10:19:23;;;;;;;2.00;1.33;;;29.40;46.80;;;;;;5095862;28;20080;-67
2022/06/23 10:21:52;;;;;;;1.58;1.48;;;29.40;47.00;;;;;;5095473;28;20299;-67
2022/06/23 10:24:30;;;;;;;1.83;1.63;;;29.40;47.20;;;;;;5095553;28;20024;-68
2022/06/23 10:27:17;;;;;;;1.50;1.40;;;29.50;47.30;;;;;;5095363;28;20038;-67
2022/06/23 10:30:03;;;;;;;2.53;1.40;;;29.60;47.90;;;;;;5095291;28;20056;-67
2022/06/23 10:32:47;;;;;;;2.53;1.35;;;29.50;47.50;;;;;;5095755;28;20032;-67
2022/06/23 10:35:37;;;;;;;2.22;1.40;;;29.40;46.10;;;;;;5095326;28;20102;-67
2022/06/23 10:38:25;;;;;;;1.75;1.50;;;29.40;45.00;;;;;;5095430;28;20043;-66
2022/06/23 10:41:09;;;;;;;2.72;1.50;;;29.30;45.10;;;;;;5095170;28;20069;-66
2022/06/23 10:43:54;;;;;;;1.42;1.30;;;29.30;46.20;;;;;;5095283;28;20233;-68
2022/06/23 10:46:22;;;;;;;1.67;1.40;;;29.40;46.80;;;;;;5095824;28;20136;-68
2022/06/23 10:49:24;;;;;;;2.53;1.30;;;29.40;45.10;;;;;;5094658;28;20028;-67
2022/06/23 10:52:11;;;;;;;1.88;1.33;;;29.40;44.80;;;;;;5056848;28;20032;-67
2022/06/23 10:54:42;;;;;;;1.60;1.02;;;29.50;45.40;;;;;;5095025;28;20024;-67
2022/06/23 10:57:26;;;;;;;2.55;1.08;;;29.50;45.40;;;;;;5095168;28;20038;-67
2022/06/23 11:00:00;;;;;;;1.30;1.20;;;29.50;43.10;;;;;;5094023;28;20028;-67
2022/06/23 11:03:04;;;;;;;1.92;1.50;;;29.60;43.30;;;;;;5094993;28;20461;-68
2022/06/23 11:05:54;;;;;;;6.30;1.55;;;29.60;42.20;;;;;;5089670;28;20048;-66
2022/06/23 11:08:38;;;;;;;1.10;1.00;;;29.50;41.70;;;;;;5095078;28;20024;-66
2022/06/23 11:11:24;;;;;;;1.90;1.33;;;29.50;42.30;;;;;;5095104;28;20107;-67
2022/06/23 11:14:14;;;;;;;1.55;1.20;;;29.50;43.20;;;;;;5094472;28;20481;-67
2022/06/23 11:17:01;;;;;;;1.80;1.33;;;29.60;42.50;;;;;;5094022;28;20471;-66
2022/06/23 11:19:26;;;;;;;1.63;1.13;;;29.50;41.70;;;;;;5094502;28;20032;-67
2022/06/23 11:22:20;;;;;;;1.65;1.27;;;29.60;43.50;;;;;;5094316;28;20020;-67
2022/06/23 11:25:15;;;;;;;1.50;1.30;;;29.50;42.50;;;;;;5094237;28;20127;-66
2022/06/23 11:28:19;;;;;;;1.10;1.00;;;29.50;41.80;;;;;;5094121;28;20361;-66
2022/06/23 11:30:51;;;;;;;1.10;1.00;;;29.50;43.70;;;;;;5055885;28;20044;-67
2022/06/23 11:33:29;;;;;;;3.55;1.20;;;29.60;45.00;;;;;;5094353;28;20020;-66
2022/06/23 11:35:57;;;;;;;2.70;1.23;;;29.70;44.10;;;;;;5094118;28;20118;-67
2022/06/23 11:38:58;;;;;;;2.05;1.20;;;29.70;42.40;;;;;;5094442;28;20097;-66
2022/06/23 11:41:41;;;;;;;;;;;29.70;42.90;;;;;;5075440;28;20044;-67
2022/06/23 11:44:28;;;;;;;1.13;1.02;;;29.70;42.40;;;;;;5094561;28;19904;-67
2022/06/23 11:47:17;;;;;;;1.40;1.30;;;29.70;42.70;;;;;;5093842;28;20507;-67
2022/06/23 11:49:53;;;;;;;1.40;1.27;;;29.70;43.00;;;;;;5046307;28;20044;-67
2022/06/23 11:52:29;;;;;;;1.85;1.23;;;29.70;43.10;;;;;;5094147;28;20101;-67
2022/06/23 11:55:17;;;;;;;1.75;1.10;;;29.70;42.50;;;;;;5093587;28;20028;-67
2022/06/23 11:58:13;;;;;;;1.20;1.10;;;29.60;42.10;;;;;;5091241;28;20137;-67
2022/06/23 12:01:00;;;;;;;1.55;1.00;;;29.60;41.70;;;;;;5073520;28;20029;-67
2022/06/23 12:03:50;;;;;;;2.97;1.10;;;29.60;42.00;;;;;;5074440;28;20541;-67
2022/06/23 12:06:23;;;;;;;2.55;1.15;;;29.60;42.20;;;;;;5073425;28;20346;-67
2022/06/23 12:09:14;;;;;;;1.05;1.02;;;29.50;42.70;;;;;;5073022;28;20020;-67
2022/06/23 12:11:40;;;;;;;;;;;29.50;43.20;;;;;;5072472;28;20025;-67
2022/06/23 12:14:09;;;;;;;1.40;1.23;;;29.50;42.80;;;;;;5073503;28;20320;-67
2022/06/23 12:16:52;;;;;;;0.98;0.98;;;29.40;42.50;;;;;;5072954;28;20362;-67
2022/06/23 12:19:21;;;;;;;1.33;1.23;;;29.40;41.90;;;;;;5073545;28;20028;-67
2022/06/23 12:21:53;;;;;;;1.40;1.23;;;29.40;42.30;;;;;;5072581;28;20041;-67
2022/06/23 12:25:00;;;;;;;1.38;0.90;;;29.30;41.60;;;;;;5073209;28;20032;-67
2022/06/23 12:27:31;;;;;;;1.80;1.20;;;29.30;41.80;;;;;;5072709;28;20037;-67
2022/06/23 12:30:08;;;;;;;1.73;1.00;;;29.30;41.70;;;;;;5072713;28;20441;-67
2022/06/23 12:32:52;;;;;;;2.50;1.27;;;29.30;41.80;;;;;;5073149;28;20055;-67
2022/06/23 12:35:51;;;;;;;2.70;1.10;;;29.30;41.30;;;;;;5073024;28;20402;-67
2022/06/23 12:38:29;;;;;;;2.10;1.60;;;29.20;41.10;;;;;;5073406;28;20025;-67
2022/06/23 12:41:04;;;;;;;1.25;1.10;;;29.20;41.00;;;;;;5072756;28;20028;-67
2022/06/23 12:44:12;;;;;;;1.60;1.33;;;29.20;41.50;;;;;;5073073;28;20050;-67
2022/06/23 12:46:49;;;;;;;1.33;1.15;;;29.20;43.20;;;;;;5072604;28;20472;-67
2022/06/23 12:49:18;;;;;;;1.80;1.00;;;29.20;41.30;;;;;;5073159;28;20067;-67
2022/06/23 12:52:16;;;;;;;0.98;0.90;;;29.10;41.70;;;;;;5072214;28;20109;-66
2022/06/23 12:55:06;;;;;;;1.98;1.17;;;29.10;41.60;;;;;;5072855;28;20373;-66
2022/06/23 12:58:01;;;;;;;1.20;1.10;;;29.10;41.70;;;;;;5072334;28;20039;-67
2022/06/23 13:01:04;;;;;;;2.15;1.23;;;29.10;41.10;;;;;;5072667;28;20033;-67
2022/06/23 13:03:41;;;;;;;1.02;0.90;;;29.00;41.00;;;;;;5072294;28;20035;-67
2022/06/23 13:06:48;;;;;;;2.47;1.38;;;29.00;41.10;;;;;;5072493;28;20024;-67
2022/06/23 13:09:43;;;;;;;1.58;1.00;;;29.00;41.40;;;;;;4990783;28;20035;-67
2022/06/23 13:12:15;;;;;;;2.53;1.02;;;28.90;41.40;;;;;;5072384;28;20027;-67
2022/06/23 13:14:55;;;;;;;3.00;1.00;;;28.90;41.00;;;;;;5072414;28;20140;-66
2022/06/23 13:17:37;;;;;;;1.10;1.00;;;28.90;42.30;;;;;;5072209;28;20484;-66
2022/06/23 13:20:19;;;;;;;1.05;0.95;;;28.80;41.60;;;;;;5072034;28;20025;-66
2022/06/23 13:22:59;;;;;;;1.55;0.95;;;28.80;40.90;;;;;;5071731;28;20064;-66
2022/06/23 13:25:32;;;;;;;1.13;1.00;;;28.70;40.80;;;;;;5072296;28;20380;-67
2022/06/23 13:27:58;;;;;;;2.08;1.00;;;28.70;40.80;;;;;;5072103;28;20029;-67
2022/06/23 13:30:27;;;;;;;1.58;1.02;;;28.70;40.80;;;;;;5072227;28;20112;-66
2022/06/23 13:33:05;;;;;;;1.40;1.02;;;28.70;41.20;;;;;;5072109;28;20119;-67
2022/06/23 13:35:46;;;;;;;1.30;1.15;;;28.60;40.70;;;;;;5072135;28;20032;-67
2022/06/23 13:38:29;;;;;;;1.05;0.80;;;28.60;41.00;;;;;;5072306;28;20025;-67
2022/06/23 13:41:15;;;;;;;0.63;0.63;;;28.50;40.60;;;;;;5071588;28;20029;-67
2022/06/23 13:43:54;;;;;;;1.88;1.17;;;28.50;42.20;;;;;;5072269;28;20028;-67
2022/06/23 13:46:31;;;;;;;2.03;1.20;;;28.60;41.30;;;;;;5072156;28;20056;-67
2022/06/23 13:49:12;;;;;;;1.13;0.95;;;28.50;40.10;;;;;;5074053;28;20020;-67
2022/06/23 13:51:46;;;;;;;1.55;1.13;;;28.50;40.60;;;;;;5053661;28;20032;-66
2022/06/23 13:54:41;;;;;;;1.15;1.02;;;28.50;40.20;;;;;;5072157;28;20149;-67
2022/06/23 13:57:33;;;;;;;0.73;0.73;;;28.40;40.90;;;;;;5071617;28;20136;-67
2022/06/23 14:00:05;;;;;;;1.20;1.10;;;28.40;40.70;;;;;;5084141;28;20031;-67
2022/06/23 14:02:53;;;;;;;1.63;1.27;;;28.40;39.90;;;;;;5091943;28;20035;-68